sensor_id;sensor_type;location;lat;lon;timestamp;temperature;humidity
13440;DHT22;6792;57.698;11.946;2022-12-24T00:00:13;5.90;52.00
13440;DHT22;6792;57.698;11.946;2022-12-24T00:02:42;5.90;51.90
13440;DHT22;6792;57.698;11.946;2022-12-24T00:05:12;5.90;51.90
13440;DHT22;6792;57.698;11.946;2022-12-24T00:07:41;5.90;51.90
13440;DHT22;6792;57.698;11.946;2022-12-24T00:10:11;5.90;51.90
13440;DHT22;6792;57.698;11.946;2022-12-24T00:12:40;5.90;51.90
13440;DHT22;6792;57.698;11.946;2022-12-24T00:15:10;5.90;51.90
13440;DHT22;6792;57.698;11.946;2022-12-24T00:17:40;5.80;51.80
13440;DHT22;6792;57.698;11.946;2022-12-24T00:20:10;5.80;51.90
13440;DHT22;6792;57.698;11.946;2022-12-24T00:22:40;5.80;51.90
13440;DHT22;6792;57.698;11.946;2022-12-24T00:25:09;5.80;51.90
13440;DHT22;6792;57.698;11.946;2022-12-24T00:27:39;5.80;51.90
13440;DHT22;6792;57.698;11.946;2022-12-24T00:30:12;5.80;51.90
13440;DHT22;6792;57.698;11.946;2022-12-24T00:32:41;5.80;52.50
13440;DHT22;6792;57.698;11.946;2022-12-24T00:35:10;5.80;51.90
13440;DHT22;6792;57.698;11.946;2022-12-24T00:37:39;5.80;51.90
13440;DHT22;6792;57.698;11.946;2022-12-24T00:40:10;5.80;51.90
13440;DHT22;6792;57.698;11.946;2022-12-24T00:42:39;5.70;51.70
13440;DHT22;6792;57.698;11.946;2022-12-24T00:45:10;5.70;51.80
13440;DHT22;6792;57.698;11.946;2022-12-24T00:47:39;5.70;51.80
13440;DHT22;6792;57.698;11.946;2022-12-24T00:50:09;5.70;51.80
13440;DHT22;6792;57.698;11.946;2022-12-24T00:52:39;5.60;51.80
13440;DHT22;6792;57.698;11.946;2022-12-24T00:55:08;5.60;51.80
13440;DHT22;6792;57.698;11.946;2022-12-24T00:57:38;5.60;51.80
13440;DHT22;6792;57.698;11.946;2022-12-24T01:00:09;5.60;51.80
13440;DHT22;6792;57.698;11.946;2022-12-24T01:02:38;5.60;51.90
13440;DHT22;6792;57.698;11.946;2022-12-24T01:05:11;5.50;51.70
13440;DHT22;6792;57.698;11.946;2022-12-24T01:07:42;5.50;51.80
13440;DHT22;6792;57.698;11.946;2022-12-24T01:10:12;5.50;51.80
13440;DHT22;6792;57.698;11.946;2022-12-24T01:12:42;5.50;51.80
13440;DHT22;6792;57.698;11.946;2022-12-24T01:15:13;5.50;51.80
13440;DHT22;6792;57.698;11.946;2022-12-24T01:17:42;5.60;51.80
13440;DHT22;6792;57.698;11.946;2022-12-24T01:20:14;5.50;51.70
13440;DHT22;6792;57.698;11.946;2022-12-24T01:22:44;5.50;51.80
13440;DHT22;6792;57.698;11.946;2022-12-24T01:25:13;5.50;51.90
13440;DHT22;6792;57.698;11.946;2022-12-24T01:27:42;5.50;51.30
13440;DHT22;6792;57.698;11.946;2022-12-24T01:30:13;5.50;51.90
13440;DHT22;6792;57.698;11.946;2022-12-24T01:32:42;5.50;51.90
13440;DHT22;6792;57.698;11.946;2022-12-24T01:35:11;5.50;51.90
13440;DHT22;6792;57.698;11.946;2022-12-24T01:37:41;5.50;51.90
13440;DHT22;6792;57.698;11.946;2022-12-24T01:40:14;5.40;51.80
13440;DHT22;6792;57.698;11.946;2022-12-24T01:43:01;5.40;51.90
13440;DHT22;6792;57.698;11.946;2022-12-24T01:45:49;5.30;52.00
13440;DHT22;6792;57.698;11.946;2022-12-24T01:48:30;5.30;52.10
13440;DHT22;6792;57.698;11.946;2022-12-24T01:51:05;5.30;52.10
13440;DHT22;6792;57.698;11.946;2022-12-24T01:53:36;5.30;52.10
13440;DHT22;6792;57.698;11.946;2022-12-24T01:56:07;5.30;52.10
13440;DHT22;6792;57.698;11.946;2022-12-24T01:58:38;5.30;52.00
13440;DHT22;6792;57.698;11.946;2022-12-24T02:01:07;5.30;52.00
13440;DHT22;6792;57.698;11.946;2022-12-24T02:03:37;5.30;52.00
13440;DHT22;6792;57.698;11.946;2022-12-24T02:06:08;5.30;51.90
13440;DHT22;6792;57.698;11.946;2022-12-24T02:08:38;5.30;51.90
13440;DHT22;6792;57.698;11.946;2022-12-24T02:11:12;5.30;51.40
13440;DHT22;6792;57.698;11.946;2022-12-24T02:13:45;5.30;51.90
13440;DHT22;6792;57.698;11.946;2022-12-24T02:16:20;5.20;51.30
13440;DHT22;6792;57.698;11.946;2022-12-24T02:18:53;5.20;51.90
13440;DHT22;6792;57.698;11.946;2022-12-24T02:21:54;5.20;51.90
13440;DHT22;6792;57.698;11.946;2022-12-24T02:27:30;5.20;51.90
13440;DHT22;6792;57.698;11.946;2022-12-24T02:32:56;5.10;51.90
13440;DHT22;6792;57.698;11.946;2022-12-24T02:35:32;5.10;51.90
13440;DHT22;6792;57.698;11.946;2022-12-24T02:38:04;5.10;52.00
13440;DHT22;6792;57.698;11.946;2022-12-24T02:40:36;5.10;52.00
13440;DHT22;6792;57.698;11.946;2022-12-24T02:43:10;5.10;51.90
13440;DHT22;6792;57.698;11.946;2022-12-24T02:45:41;5.10;51.30
13440;DHT22;6792;57.698;11.946;2022-12-24T02:48:12;5.10;51.80
13440;DHT22;6792;57.698;11.946;2022-12-24T02:51:00;5.10;51.80
13440;DHT22;6792;57.698;11.946;2022-12-24T02:53:29;5.10;51.80
13440;DHT22;6792;57.698;11.946;2022-12-24T02:59:11;5.10;51.70
13440;DHT22;6792;57.698;11.946;2022-12-24T03:01:44;5.00;51.70
13440;DHT22;6792;57.698;11.946;2022-12-24T03:04:18;5.00;51.90
13440;DHT22;6792;57.698;11.946;2022-12-24T03:06:49;4.90;51.90
13440;DHT22;6792;57.698;11.946;2022-12-24T03:09:24;5.00;51.90
13440;DHT22;6792;57.698;11.946;2022-12-24T03:11:57;5.00;51.90
13440;DHT22;6792;57.698;11.946;2022-12-24T03:14:27;4.90;51.90
13440;DHT22;6792;57.698;11.946;2022-12-24T03:16:58;4.90;51.90
13440;DHT22;6792;57.698;11.946;2022-12-24T03:19:28;5.00;52.50
13440;DHT22;6792;57.698;11.946;2022-12-24T03:21:59;5.00;51.90
13440;DHT22;6792;57.698;11.946;2022-12-24T03:24:30;4.90;51.80
13440;DHT22;6792;57.698;11.946;2022-12-24T03:26:59;4.90;51.80
13440;DHT22;6792;57.698;11.946;2022-12-24T03:29:29;4.90;51.90
13440;DHT22;6792;57.698;11.946;2022-12-24T03:32:01;4.90;51.90
13440;DHT22;6792;57.698;11.946;2022-12-24T03:34:31;4.90;51.90
13440;DHT22;6792;57.698;11.946;2022-12-24T03:37:00;4.90;51.70
13440;DHT22;6792;57.698;11.946;2022-12-24T03:39:29;4.90;51.20
13440;DHT22;6792;57.698;11.946;2022-12-24T03:41:58;4.90;51.80
13440;DHT22;6792;57.698;11.946;2022-12-24T03:44:27;4.90;51.80
13440;DHT22;6792;57.698;11.946;2022-12-24T03:46:56;4.90;51.90
13440;DHT22;6792;57.698;11.946;2022-12-24T03:49:26;4.90;51.70
13440;DHT22;6792;57.698;11.946;2022-12-24T03:51:55;4.90;51.70
13440;DHT22;6792;57.698;11.946;2022-12-24T03:54:24;4.90;51.60
13440;DHT22;6792;57.698;11.946;2022-12-24T03:56:53;4.90;51.60
13440;DHT22;6792;57.698;11.946;2022-12-24T03:59:22;4.90;51.60
13440;DHT22;6792;57.698;11.946;2022-12-24T04:01:51;4.90;51.60
13440;DHT22;6792;57.698;11.946;2022-12-24T04:04:20;4.90;51.70
13440;DHT22;6792;57.698;11.946;2022-12-24T04:06:50;4.90;51.70
13440;DHT22;6792;57.698;11.946;2022-12-24T04:09:19;4.80;51.60
13440;DHT22;6792;57.698;11.946;2022-12-24T04:11:48;4.80;51.60
13440;DHT22;6792;57.698;11.946;2022-12-24T04:14:17;4.80;51.60
13440;DHT22;6792;57.698;11.946;2022-12-24T04:16:46;4.80;51.60
13440;DHT22;6792;57.698;11.946;2022-12-24T04:19:15;4.80;51.60
13440;DHT22;6792;57.698;11.946;2022-12-24T04:21:44;4.80;51.60
13440;DHT22;6792;57.698;11.946;2022-12-24T04:24:13;4.80;51.60
13440;DHT22;6792;57.698;11.946;2022-12-24T04:26:42;4.80;51.60
13440;DHT22;6792;57.698;11.946;2022-12-24T04:29:11;4.70;51.50
13440;DHT22;6792;57.698;11.946;2022-12-24T04:31:41;4.70;51.50
13440;DHT22;6792;57.698;11.946;2022-12-24T04:34:10;4.70;51.50
13440;DHT22;6792;57.698;11.946;2022-12-24T04:36:39;4.70;51.00
13440;DHT22;6792;57.698;11.946;2022-12-24T04:39:08;4.70;51.50
13440;DHT22;6792;57.698;11.946;2022-12-24T04:41:37;4.70;51.60
13440;DHT22;6792;57.698;11.946;2022-12-24T04:44:08;4.60;51.50
13440;DHT22;6792;57.698;11.946;2022-12-24T04:46:38;4.60;51.50
13440;DHT22;6792;57.698;11.946;2022-12-24T04:49:08;4.60;52.10
13440;DHT22;6792;57.698;11.946;2022-12-24T04:51:37;4.60;51.60
13440;DHT22;6792;57.698;11.946;2022-12-24T04:54:06;4.60;51.50
13440;DHT22;6792;57.698;11.946;2022-12-24T04:56:35;4.60;51.50
13440;DHT22;6792;57.698;11.946;2022-12-24T04:59:04;4.60;51.40
13440;DHT22;6792;57.698;11.946;2022-12-24T05:01:33;4.50;51.40
13440;DHT22;6792;57.698;11.946;2022-12-24T05:04:02;4.50;51.50
13440;DHT22;6792;57.698;11.946;2022-12-24T05:06:33;4.50;51.40
13440;DHT22;6792;57.698;11.946;2022-12-24T05:09:03;4.50;50.90
13440;DHT22;6792;57.698;11.946;2022-12-24T05:11:32;4.50;51.50
13440;DHT22;6792;57.698;11.946;2022-12-24T05:14:01;4.40;50.90
13440;DHT22;6792;57.698;11.946;2022-12-24T05:16:30;4.50;51.60
13440;DHT22;6792;57.698;11.946;2022-12-24T05:19:00;4.50;51.60
13440;DHT22;6792;57.698;11.946;2022-12-24T05:21:29;4.50;51.50
13440;DHT22;6792;57.698;11.946;2022-12-24T05:23:58;4.50;51.50
13440;DHT22;6792;57.698;11.946;2022-12-24T05:26:47;4.50;51.50
13440;DHT22;6792;57.698;11.946;2022-12-24T05:29:17;4.40;51.60
13440;DHT22;6792;57.698;11.946;2022-12-24T05:31:46;4.40;51.70
13440;DHT22;6792;57.698;11.946;2022-12-24T05:34:16;4.40;51.60
13440;DHT22;6792;57.698;11.946;2022-12-24T05:36:45;4.40;51.50
13440;DHT22;6792;57.698;11.946;2022-12-24T05:39:16;4.40;51.40
13440;DHT22;6792;57.698;11.946;2022-12-24T05:41:45;4.40;51.40
13440;DHT22;6792;57.698;11.946;2022-12-24T05:44:14;4.40;51.50
13440;DHT22;6792;57.698;11.946;2022-12-24T05:46:44;4.40;51.40
13440;DHT22;6792;57.698;11.946;2022-12-24T05:49:13;4.40;51.40
13440;DHT22;6792;57.698;11.946;2022-12-24T05:51:43;4.40;51.40
13440;DHT22;6792;57.698;11.946;2022-12-24T05:54:12;4.40;51.50
13440;DHT22;6792;57.698;11.946;2022-12-24T05:56:41;4.40;51.40
13440;DHT22;6792;57.698;11.946;2022-12-24T05:59:10;4.40;50.90
13440;DHT22;6792;57.698;11.946;2022-12-24T06:01:40;4.40;51.40
13440;DHT22;6792;57.698;11.946;2022-12-24T06:04:10;4.40;51.40
13440;DHT22;6792;57.698;11.946;2022-12-24T06:06:39;4.40;51.40
13440;DHT22;6792;57.698;11.946;2022-12-24T06:09:08;4.40;51.40
13440;DHT22;6792;57.698;11.946;2022-12-24T06:11:37;4.40;51.40
13440;DHT22;6792;57.698;11.946;2022-12-24T06:14:06;4.40;51.60
13440;DHT22;6792;57.698;11.946;2022-12-24T06:16:35;4.40;51.40
13440;DHT22;6792;57.698;11.946;2022-12-24T06:19:04;4.40;51.30
13440;DHT22;6792;57.698;11.946;2022-12-24T06:21:33;4.30;51.40
13440;DHT22;6792;57.698;11.946;2022-12-24T06:24:03;4.30;51.40
13440;DHT22;6792;57.698;11.946;2022-12-24T06:26:32;4.30;51.40
13440;DHT22;6792;57.698;11.946;2022-12-24T06:29:01;4.40;51.40
13440;DHT22;6792;57.698;11.946;2022-12-24T06:31:30;4.40;51.40
13440;DHT22;6792;57.698;11.946;2022-12-24T06:36:40;4.30;50.80
13440;DHT22;6792;57.698;11.946;2022-12-24T06:39:09;4.30;51.40
13440;DHT22;6792;57.698;11.946;2022-12-24T06:41:38;4.30;51.40
13440;DHT22;6792;57.698;11.946;2022-12-24T06:44:08;4.30;51.40
13440;DHT22;6792;57.698;11.946;2022-12-24T06:46:37;4.40;51.40
13440;DHT22;6792;57.698;11.946;2022-12-24T06:49:06;4.30;51.40
13440;DHT22;6792;57.698;11.946;2022-12-24T06:51:35;4.30;51.40
13440;DHT22;6792;57.698;11.946;2022-12-24T06:54:05;4.30;51.40
13440;DHT22;6792;57.698;11.946;2022-12-24T06:56:34;4.40;51.40
13440;DHT22;6792;57.698;11.946;2022-12-24T06:59:03;4.30;51.30
13440;DHT22;6792;57.698;11.946;2022-12-24T07:01:32;4.30;51.90
13440;DHT22;6792;57.698;11.946;2022-12-24T07:04:01;4.30;51.40
13440;DHT22;6792;57.698;11.946;2022-12-24T07:06:30;4.30;51.40
13440;DHT22;6792;57.698;11.946;2022-12-24T07:08:59;4.30;51.30
13440;DHT22;6792;57.698;11.946;2022-12-24T07:11:28;4.30;51.30
13440;DHT22;6792;57.698;11.946;2022-12-24T07:13:57;4.30;51.30
13440;DHT22;6792;57.698;11.946;2022-12-24T07:16:26;4.30;51.90
13440;DHT22;6792;57.698;11.946;2022-12-24T07:18:55;4.30;51.30
13440;DHT22;6792;57.698;11.946;2022-12-24T07:21:25;4.30;51.30
13440;DHT22;6792;57.698;11.946;2022-12-24T07:23:54;4.30;51.40
13440;DHT22;6792;57.698;11.946;2022-12-24T07:26:23;4.30;51.40
13440;DHT22;6792;57.698;11.946;2022-12-24T07:28:52;4.30;51.40
13440;DHT22;6792;57.698;11.946;2022-12-24T07:31:21;4.30;51.40
13440;DHT22;6792;57.698;11.946;2022-12-24T07:33:56;4.30;51.50
13440;DHT22;6792;57.698;11.946;2022-12-24T07:36:25;4.30;50.90
13440;DHT22;6792;57.698;11.946;2022-12-24T07:38:55;4.30;51.40
13440;DHT22;6792;57.698;11.946;2022-12-24T07:41:24;4.30;50.90
13440;DHT22;6792;57.698;11.946;2022-12-24T07:43:53;4.30;51.50
13440;DHT22;6792;57.698;11.946;2022-12-24T07:46:23;4.30;51.40
13440;DHT22;6792;57.698;11.946;2022-12-24T07:48:52;4.30;51.40
13440;DHT22;6792;57.698;11.946;2022-12-24T07:51:21;4.30;51.40
13440;DHT22;6792;57.698;11.946;2022-12-24T07:53:51;4.30;51.40
13440;DHT22;6792;57.698;11.946;2022-12-24T07:56:20;4.30;51.40
13440;DHT22;6792;57.698;11.946;2022-12-24T07:58:51;4.30;51.50
13440;DHT22;6792;57.698;11.946;2022-12-24T08:01:20;4.40;51.40
13440;DHT22;6792;57.698;11.946;2022-12-24T08:03:49;4.30;51.40
13440;DHT22;6792;57.698;11.946;2022-12-24T08:06:20;4.30;50.80
13440;DHT22;6792;57.698;11.946;2022-12-24T08:08:49;4.20;50.80
13440;DHT22;6792;57.698;11.946;2022-12-24T08:11:18;4.30;51.50
13440;DHT22;6792;57.698;11.946;2022-12-24T08:13:47;4.20;50.90
13440;DHT22;6792;57.698;11.946;2022-12-24T08:16:16;4.30;51.60
13440;DHT22;6792;57.698;11.946;2022-12-24T08:18:45;4.30;51.50
13440;DHT22;6792;57.698;11.946;2022-12-24T08:21:15;4.30;51.50
13440;DHT22;6792;57.698;11.946;2022-12-24T08:23:45;4.30;51.40
13440;DHT22;6792;57.698;11.946;2022-12-24T08:26:14;4.30;51.40
13440;DHT22;6792;57.698;11.946;2022-12-24T08:28:44;4.40;51.50
13440;DHT22;6792;57.698;11.946;2022-12-24T08:31:13;4.40;51.40
13440;DHT22;6792;57.698;11.946;2022-12-24T08:33:42;4.40;51.40
13440;DHT22;6792;57.698;11.946;2022-12-24T08:36:11;4.40;51.40
13440;DHT22;6792;57.698;11.946;2022-12-24T08:38:40;4.40;51.30
13440;DHT22;6792;57.698;11.946;2022-12-24T08:41:09;4.40;51.40
13440;DHT22;6792;57.698;11.946;2022-12-24T08:43:38;4.40;51.30
13440;DHT22;6792;57.698;11.946;2022-12-24T08:46:08;4.40;51.30
13440;DHT22;6792;57.698;11.946;2022-12-24T08:48:38;4.40;51.40
13440;DHT22;6792;57.698;11.946;2022-12-24T08:51:08;4.40;50.90
13440;DHT22;6792;57.698;11.946;2022-12-24T08:53:38;4.40;50.90
13440;DHT22;6792;57.698;11.946;2022-12-24T08:56:09;4.50;51.50
13440;DHT22;6792;57.698;11.946;2022-12-24T08:58:39;4.40;50.90
13440;DHT22;6792;57.698;11.946;2022-12-24T09:01:12;4.50;52.10
13440;DHT22;6792;57.698;11.946;2022-12-24T09:03:42;4.50;51.40
13440;DHT22;6792;57.698;11.946;2022-12-24T09:06:11;4.50;51.40
13440;DHT22;6792;57.698;11.946;2022-12-24T09:08:41;4.50;51.50
13440;DHT22;6792;57.698;11.946;2022-12-24T09:11:11;4.50;51.40
13440;DHT22;6792;57.698;11.946;2022-12-24T09:13:42;4.60;51.50
13440;DHT22;6792;57.698;11.946;2022-12-24T09:16:11;4.60;51.50
13440;DHT22;6792;57.698;11.946;2022-12-24T09:18:40;4.60;51.50
13440;DHT22;6792;57.698;11.946;2022-12-24T09:21:12;4.60;51.40
13440;DHT22;6792;57.698;11.946;2022-12-24T09:23:43;4.70;51.40
13440;DHT22;6792;57.698;11.946;2022-12-24T09:26:15;4.60;51.40
13440;DHT22;6792;57.698;11.946;2022-12-24T09:28:44;4.60;51.50
13440;DHT22;6792;57.698;11.946;2022-12-24T09:31:14;4.60;51.50
13440;DHT22;6792;57.698;11.946;2022-12-24T09:33:44;4.70;51.40
13440;DHT22;6792;57.698;11.946;2022-12-24T09:36:14;4.70;51.40
13440;DHT22;6792;57.698;11.946;2022-12-24T09:38:44;4.70;51.40
13440;DHT22;6792;57.698;11.946;2022-12-24T09:41:16;4.80;51.40
13440;DHT22;6792;57.698;11.946;2022-12-24T09:43:48;4.80;51.40
13440;DHT22;6792;57.698;11.946;2022-12-24T09:46:20;4.80;51.50
13440;DHT22;6792;57.698;11.946;2022-12-24T09:48:53;4.80;51.40
13440;DHT22;6792;57.698;11.946;2022-12-24T09:51:27;4.90;51.50
13440;DHT22;6792;57.698;11.946;2022-12-24T09:54:00;4.90;51.50
13440;DHT22;6792;57.698;11.946;2022-12-24T09:56:33;4.90;51.50
13440;DHT22;6792;57.698;11.946;2022-12-24T09:59:05;4.90;51.50
13440;DHT22;6792;57.698;11.946;2022-12-24T10:01:36;5.00;51.60
13440;DHT22;6792;57.698;11.946;2022-12-24T10:04:08;5.00;51.60
13440;DHT22;6792;57.698;11.946;2022-12-24T10:06:43;5.10;51.60
13440;DHT22;6792;57.698;11.946;2022-12-24T10:09:15;5.10;51.60
13440;DHT22;6792;57.698;11.946;2022-12-24T10:11:49;5.20;51.50
13440;DHT22;6792;57.698;11.946;2022-12-24T10:14:25;5.20;51.00
13440;DHT22;6792;57.698;11.946;2022-12-24T10:17:00;5.30;51.60
13440;DHT22;6792;57.698;11.946;2022-12-24T10:19:35;5.30;51.60
13440;DHT22;6792;57.698;11.946;2022-12-24T10:22:07;5.30;51.60
13440;DHT22;6792;57.698;11.946;2022-12-24T10:24:38;5.30;51.00
13440;DHT22;6792;57.698;11.946;2022-12-24T10:27:11;5.40;51.00
13440;DHT22;6792;57.698;11.946;2022-12-24T10:29:44;5.40;51.60
13440;DHT22;6792;57.698;11.946;2022-12-24T10:32:19;5.40;51.60
13440;DHT22;6792;57.698;11.946;2022-12-24T10:34:51;5.50;51.50
13440;DHT22;6792;57.698;11.946;2022-12-24T10:37:24;5.50;51.00
13440;DHT22;6792;57.698;11.946;2022-12-24T10:39:55;5.50;51.00
13440;DHT22;6792;57.698;11.946;2022-12-24T10:42:30;5.60;51.60
13440;DHT22;6792;57.698;11.946;2022-12-24T10:45:01;5.60;51.50
13440;DHT22;6792;57.698;11.946;2022-12-24T10:47:33;5.60;51.50
13440;DHT22;6792;57.698;11.946;2022-12-24T10:50:09;5.60;51.50
13440;DHT22;6792;57.698;11.946;2022-12-24T10:52:41;5.60;51.40
13440;DHT22;6792;57.698;11.946;2022-12-24T10:58:06;5.70;50.90
13440;DHT22;6792;57.698;11.946;2022-12-24T11:00:35;5.60;51.40
13440;DHT22;6792;57.698;11.946;2022-12-24T11:03:18;5.60;51.40
13440;DHT22;6792;57.698;11.946;2022-12-24T11:05:45;5.70;51.40
13440;DHT22;6792;57.698;11.946;2022-12-24T11:08:17;5.70;51.40
13440;DHT22;6792;57.698;11.946;2022-12-24T11:10:54;5.70;51.40
13440;DHT22;6792;57.698;11.946;2022-12-24T11:13:26;5.70;51.40
13440;DHT22;6792;57.698;11.946;2022-12-24T11:16:05;5.80;51.50
13440;DHT22;6792;57.698;11.946;2022-12-24T11:18:37;5.80;51.50
13440;DHT22;6792;57.698;11.946;2022-12-24T11:21:08;5.80;51.50
13440;DHT22;6792;57.698;11.946;2022-12-24T11:23:37;5.80;51.50
13440;DHT22;6792;57.698;11.946;2022-12-24T11:26:06;5.80;51.50
13440;DHT22;6792;57.698;11.946;2022-12-24T11:28:35;5.90;51.60
13440;DHT22;6792;57.698;11.946;2022-12-24T11:31:15;5.90;51.50
13440;DHT22;6792;57.698;11.946;2022-12-24T11:33:47;5.90;50.90
13440;DHT22;6792;57.698;11.946;2022-12-24T11:36:19;6.00;51.50
13440;DHT22;6792;57.698;11.946;2022-12-24T11:38:53;6.00;51.40
13440;DHT22;6792;57.698;11.946;2022-12-24T11:41:24;6.00;51.40
13440;DHT22;6792;57.698;11.946;2022-12-24T11:44:01;6.00;51.40
13440;DHT22;6792;57.698;11.946;2022-12-24T11:46:39;6.10;50.90
13440;DHT22;6792;57.698;11.946;2022-12-24T11:49:21;6.10;51.50
13440;DHT22;6792;57.698;11.946;2022-12-24T11:52:19;6.10;51.50
13440;DHT22;6792;57.698;11.946;2022-12-24T11:55:02;6.10;51.50
13440;DHT22;6792;57.698;11.946;2022-12-24T11:57:35;6.20;51.50
13440;DHT22;6792;57.698;11.946;2022-12-24T12:00:08;6.20;51.50
13440;DHT22;6792;57.698;11.946;2022-12-24T12:02:40;6.20;51.50
13440;DHT22;6792;57.698;11.946;2022-12-24T12:05:12;6.20;51.40
13440;DHT22;6792;57.698;11.946;2022-12-24T12:07:42;6.30;51.40
13440;DHT22;6792;57.698;11.946;2022-12-24T12:10:17;6.30;51.40
13440;DHT22;6792;57.698;11.946;2022-12-24T12:12:49;6.40;51.40
13440;DHT22;6792;57.698;11.946;2022-12-24T12:15:21;6.40;51.50
13440;DHT22;6792;57.698;11.946;2022-12-24T12:17:53;6.40;51.50
13440;DHT22;6792;57.698;11.946;2022-12-24T12:20:24;6.40;50.80
13440;DHT22;6792;57.698;11.946;2022-12-24T12:22:57;6.50;51.40
13440;DHT22;6792;57.698;11.946;2022-12-24T12:25:29;6.50;51.30
13440;DHT22;6792;57.698;11.946;2022-12-24T12:28:04;6.50;51.30
13440;DHT22;6792;57.698;11.946;2022-12-24T12:30:33;6.50;51.30
13440;DHT22;6792;57.698;11.946;2022-12-24T12:33:06;6.50;50.70
13440;DHT22;6792;57.698;11.946;2022-12-24T12:35:37;6.60;51.20
13440;DHT22;6792;57.698;11.946;2022-12-24T12:38:10;6.60;51.20
13440;DHT22;6792;57.698;11.946;2022-12-24T12:40:49;6.60;51.80
13440;DHT22;6792;57.698;11.946;2022-12-24T12:43:25;6.60;51.20
13440;DHT22;6792;57.698;11.946;2022-12-24T12:45:57;6.60;51.80
13440;DHT22;6792;57.698;11.946;2022-12-24T12:48:48;6.60;51.20
13440;DHT22;6792;57.698;11.946;2022-12-24T12:51:20;6.60;50.60
13440;DHT22;6792;57.698;11.946;2022-12-24T12:54:00;6.60;51.20
13440;DHT22;6792;57.698;11.946;2022-12-24T12:56:31;6.60;50.60
13440;DHT22;6792;57.698;11.946;2022-12-24T12:59:06;6.60;51.10
13440;DHT22;6792;57.698;11.946;2022-12-24T13:01:40;6.60;51.10
13440;DHT22;6792;57.698;11.946;2022-12-24T13:04:23;6.70;51.10
13440;DHT22;6792;57.698;11.946;2022-12-24T13:13:12;6.60;50.60
13440;DHT22;6792;57.698;11.946;2022-12-24T13:18:52;6.60;50.70
13440;DHT22;6792;57.698;11.946;2022-12-24T13:21:24;6.60;51.20
13440;DHT22;6792;57.698;11.946;2022-12-24T13:24:05;6.60;51.20
13440;DHT22;6792;57.698;11.946;2022-12-24T13:26:35;6.60;51.10
13440;DHT22;6792;57.698;11.946;2022-12-24T13:29:38;6.70;51.10
13440;DHT22;6792;57.698;11.946;2022-12-24T13:35:37;6.60;50.60
13440;DHT22;6792;57.698;11.946;2022-12-24T13:38:45;6.50;51.40
13440;DHT22;6792;57.698;11.946;2022-12-24T13:44:30;6.50;51.40
13440;DHT22;6792;57.698;11.946;2022-12-24T13:47:15;6.50;51.40
13440;DHT22;6792;57.698;11.946;2022-12-24T13:49:50;6.50;50.80
13440;DHT22;6792;57.698;11.946;2022-12-24T13:52:25;6.50;51.30
13440;DHT22;6792;57.698;11.946;2022-12-24T13:55:11;6.50;51.30
13440;DHT22;6792;57.698;11.946;2022-12-24T13:57:43;6.60;50.70
13440;DHT22;6792;57.698;11.946;2022-12-24T14:00:36;6.60;51.30
13440;DHT22;6792;57.698;11.946;2022-12-24T14:03:22;6.60;51.20
13440;DHT22;6792;57.698;11.946;2022-12-24T14:05:54;6.60;50.60
13440;DHT22;6792;57.698;11.946;2022-12-24T14:08:35;6.60;51.20
13440;DHT22;6792;57.698;11.946;2022-12-24T14:11:11;6.60;51.20
13440;DHT22;6792;57.698;11.946;2022-12-24T14:17:09;6.50;50.70
13440;DHT22;6792;57.698;11.946;2022-12-24T14:19:41;6.50;51.20
13440;DHT22;6792;57.698;11.946;2022-12-24T14:22:27;6.60;51.20
13440;DHT22;6792;57.698;11.946;2022-12-24T14:24:58;6.60;51.20
13440;DHT22;6792;57.698;11.946;2022-12-24T14:27:32;6.50;50.60
13440;DHT22;6792;57.698;11.946;2022-12-24T14:30:05;6.60;51.20
13440;DHT22;6792;57.698;11.946;2022-12-24T14:32:36;6.60;51.10
13440;DHT22;6792;57.698;11.946;2022-12-24T14:35:13;6.60;51.00
13440;DHT22;6792;57.698;11.946;2022-12-24T14:37:39;6.60;51.10
13440;DHT22;6792;57.698;11.946;2022-12-24T14:40:16;6.60;51.00
13440;DHT22;6792;57.698;11.946;2022-12-24T14:42:50;6.60;51.10
13440;DHT22;6792;57.698;11.946;2022-12-24T14:45:24;6.60;51.10
13440;DHT22;6792;57.698;11.946;2022-12-24T14:47:58;6.50;50.40
13440;DHT22;6792;57.698;11.946;2022-12-24T14:53:50;6.50;50.50
13440;DHT22;6792;57.698;11.946;2022-12-24T14:56:20;6.40;51.10
13440;DHT22;6792;57.698;11.946;2022-12-24T14:58:50;6.40;51.10
13440;DHT22;6792;57.698;11.946;2022-12-24T15:01:21;6.40;51.10
13440;DHT22;6792;57.698;11.946;2022-12-24T15:04:12;6.40;51.60
13440;DHT22;6792;57.698;11.946;2022-12-24T15:06:36;6.50;51.10
13440;DHT22;6792;57.698;11.946;2022-12-24T15:09:10;6.40;51.20
13440;DHT22;6792;57.698;11.946;2022-12-24T15:11:43;6.40;51.10
13440;DHT22;6792;57.698;11.946;2022-12-24T15:14:13;6.40;50.50
13440;DHT22;6792;57.698;11.946;2022-12-24T15:16:48;6.40;51.00
13440;DHT22;6792;57.698;11.946;2022-12-24T15:19:20;6.40;51.00
13440;DHT22;6792;57.698;11.946;2022-12-24T15:21:50;6.40;51.10
13440;DHT22;6792;57.698;11.946;2022-12-24T15:24:28;6.40;51.10
13440;DHT22;6792;57.698;11.946;2022-12-24T15:27:00;6.40;51.10
13440;DHT22;6792;57.698;11.946;2022-12-24T15:29:32;6.30;51.10
13440;DHT22;6792;57.698;11.946;2022-12-24T15:32:02;6.30;51.10
13440;DHT22;6792;57.698;11.946;2022-12-24T15:34:36;6.30;51.00
13440;DHT22;6792;57.698;11.946;2022-12-24T15:37:10;6.20;50.40
13440;DHT22;6792;57.698;11.946;2022-12-24T15:42:10;6.20;50.60
13440;DHT22;6792;57.698;11.946;2022-12-24T15:44:43;6.20;51.10
13440;DHT22;6792;57.698;11.946;2022-12-24T15:47:17;6.20;51.10
13440;DHT22;6792;57.698;11.946;2022-12-24T15:49:49;6.20;51.10
13440;DHT22;6792;57.698;11.946;2022-12-24T15:52:22;6.20;51.10
13440;DHT22;6792;57.698;11.946;2022-12-24T15:54:52;6.10;51.10
13440;DHT22;6792;57.698;11.946;2022-12-24T15:57:24;6.20;51.20
13440;DHT22;6792;57.698;11.946;2022-12-24T15:59:55;6.20;51.20
13440;DHT22;6792;57.698;11.946;2022-12-24T16:02:39;6.20;51.10
13440;DHT22;6792;57.698;11.946;2022-12-24T16:05:29;6.20;51.10
13440;DHT22;6792;57.698;11.946;2022-12-24T16:08:04;6.20;51.10
13440;DHT22;6792;57.698;11.946;2022-12-24T16:10:39;6.10;50.60
13440;DHT22;6792;57.698;11.946;2022-12-24T16:13:15;6.10;51.20
13440;DHT22;6792;57.698;11.946;2022-12-24T16:15:50;6.10;51.20
13440;DHT22;6792;57.698;11.946;2022-12-24T16:18:23;6.10;50.60
13440;DHT22;6792;57.698;11.946;2022-12-24T16:20:54;6.10;51.20
13440;DHT22;6792;57.698;11.946;2022-12-24T16:23:25;6.10;51.20
13440;DHT22;6792;57.698;11.946;2022-12-24T16:25:56;6.10;51.20
13440;DHT22;6792;57.698;11.946;2022-12-24T16:28:26;6.10;50.60
13440;DHT22;6792;57.698;11.946;2022-12-24T16:30:56;6.10;51.10
13440;DHT22;6792;57.698;11.946;2022-12-24T16:33:25;6.10;51.10
13440;DHT22;6792;57.698;11.946;2022-12-24T16:35:56;6.10;50.60
13440;DHT22;6792;57.698;11.946;2022-12-24T16:38:25;6.20;51.20
13440;DHT22;6792;57.698;11.946;2022-12-24T16:40:56;6.10;51.20
13440;DHT22;6792;57.698;11.946;2022-12-24T16:43:25;6.10;51.10
13440;DHT22;6792;57.698;11.946;2022-12-24T16:46:13;6.20;51.10
13440;DHT22;6792;57.698;11.946;2022-12-24T16:48:45;6.10;51.40
13440;DHT22;6792;57.698;11.946;2022-12-24T16:51:14;6.00;50.60
13440;DHT22;6792;57.698;11.946;2022-12-24T16:53:43;6.00;51.20